Ermitagana, Spain
Current Conditions -  °F | °C
As of 11:30 AM on Friday 21 Nov 2014 (Local Time) from LEPP Reporting Station
Few Clouds Few Clouds  
Wind Chill: 59°   Ceiling: Unl
Heat Index: 59°   Visibility: 6mi
Dew Point: 52°   Wind: 1mph
Humidity: 77%   Direction: 160°SSE
Pressure: 30.12"   Gusts: NA
Location:  42.81°N, 1.66°W
Report Text: LEPP 211030Z 16001KT 9999 FEW023 15/11 Q1020
Loading
Personal Weather Stations






























Interactive Weather Map New forecast layout! Learn more

10-Day Weather Forecast

Advertisements
Track Severe Weather on mobile